sensor_id;sensor_type;location;lat;lon;timestamp;pressure;altitude;pressure_sealevel;temperature;humidity
55217;BME280;41086;46.736;15.666;2023-02-18T00:01:14;98991.28;;;4.21;100.00
55217;BME280;41086;46.736;15.666;2023-02-18T00:03:42;98985.53;;;4.10;100.00
55217;BME280;41086;46.736;15.666;2023-02-18T00:06:17;98987.28;;;4.10;100.00
55217;BME280;41086;46.736;15.666;2023-02-18T00:08:45;98989.28;;;4.03;100.00
55217;BME280;41086;46.736;15.666;2023-02-18T00:11:12;98992.75;;;4.04;100.00
55217;BME280;41086;46.736;15.666;2023-02-18T00:13:39;98999.91;;;3.98;100.00
55217;BME280;41086;46.736;15.666;2023-02-18T00:16:09;98987.13;;;3.89;100.00
55217;BME280;41086;46.736;15.666;2023-02-18T00:18:38;98987.03;;;3.91;100.00
55217;BME280;41086;46.736;15.666;2023-02-18T00:21:06;98994.03;;;3.92;100.00
55217;BME280;41086;46.736;15.666;2023-02-18T00:23:34;98994.03;;;3.92;100.00
55217;BME280;41086;46.736;15.666;2023-02-18T00:26:06;98986.06;;;3.95;100.00
55217;BME280;41086;46.736;15.666;2023-02-18T00:28:34;98995.47;;;4.00;100.00
55217;BME280;41086;46.736;15.666;2023-02-18T00:31:13;98998.06;;;4.02;100.00
55217;BME280;41086;46.736;15.666;2023-02-18T00:33:40;99001.69;;;3.98;100.00
55217;BME280;41086;46.736;15.666;2023-02-18T00:36:11;98966.34;;;3.83;100.00
55217;BME280;41086;46.736;15.666;2023-02-18T00:38:38;99006.13;;;3.96;100.00
55217;BME280;41086;46.736;15.666;2023-02-18T00:41:09;99000.72;;;4.00;100.00
55217;BME280;41086;46.736;15.666;2023-02-18T00:43:36;99017.97;;;4.08;100.00
55217;BME280;41086;46.736;15.666;2023-02-18T00:46:03;99014.31;;;4.12;100.00
55217;BME280;41086;46.736;15.666;2023-02-18T00:48:31;99027.63;;;4.07;100.00
55217;BME280;41086;46.736;15.666;2023-02-18T00:50:58;98995.81;;;3.91;100.00
55217;BME280;41086;46.736;15.666;2023-02-18T00:53:29;98997.59;;;3.89;100.00
55217;BME280;41086;46.736;15.666;2023-02-18T00:55:56;99001.69;;;3.98;100.00
55217;BME280;41086;46.736;15.666;2023-02-18T00:58:23;98996.53;;;3.95;100.00
55217;BME280;41086;46.736;15.666;2023-02-18T01:00:50;98985.91;;;3.99;100.00
55217;BME280;41086;46.736;15.666;2023-02-18T01:03:18;98996.88;;;4.11;100.00
55217;BME280;41086;46.736;15.666;2023-02-18T01:05:44;99001.38;;;4.07;100.00
55217;BME280;41086;46.736;15.666;2023-02-18T01:08:11;98992.63;;;4.07;100.00
55217;BME280;41086;46.736;15.666;2023-02-18T01:10:43;98994.41;;;4.06;100.00
55217;BME280;41086;46.736;15.666;2023-02-18T01:13:11;98995.47;;;4.00;100.00
55217;BME280;41086;46.736;15.666;2023-02-18T01:15:39;98976.47;;;3.94;100.00
55217;BME280;41086;46.736;15.666;2023-02-18T01:18:06;98986.66;;;4.03;100.00
55217;BME280;41086;46.736;15.666;2023-02-18T01:20:35;98993.59;;;4.04;100.00
55217;BME280;41086;46.736;15.666;2023-02-18T01:23:02;98988.34;;;4.04;100.00
55217;BME280;41086;46.736;15.666;2023-02-18T01:25:30;98993.66;;;4.03;100.00
55217;BME280;41086;46.736;15.666;2023-02-18T01:27:56;98985.34;;;3.90;100.00
55217;BME280;41086;46.736;15.666;2023-02-18T01:30:23;98994.84;;;3.94;100.00
55217;BME280;41086;46.736;15.666;2023-02-18T01:32:50;98969.13;;;3.78;100.00
55217;BME280;41086;46.736;15.666;2023-02-18T01:35:18;98989.06;;;3.83;100.00
55217;BME280;41086;46.736;15.666;2023-02-18T01:37:46;98992.75;;;3.77;100.00
55217;BME280;41086;46.736;15.666;2023-02-18T01:40:16;98980.72;;;3.71;100.00
55217;BME280;41086;46.736;15.666;2023-02-18T01:42:43;98984.25;;;3.70;100.00
55217;BME280;41086;46.736;15.666;2023-02-18T01:48:07;98974.72;;;3.68;100.00
55217;BME280;41086;46.736;15.666;2023-02-18T01:50:39;98968.56;;;3.69;100.00
55217;BME280;41086;46.736;15.666;2023-02-18T01:53:07;98981.75;;;3.66;100.00
55217;BME280;41086;46.736;15.666;2023-02-18T01:55:35;98972.22;;;3.63;100.00
55217;BME280;41086;46.736;15.666;2023-02-18T01:58:05;98966.28;;;3.58;100.00
55217;BME280;41086;46.736;15.666;2023-02-18T02:00:32;98976.84;;;3.57;100.00
55217;BME280;41086;46.736;15.666;2023-02-18T02:02:59;98969.09;;;3.52;100.00
55217;BME280;41086;46.736;15.666;2023-02-18T02:05:30;98979.78;;;3.46;100.00
55217;BME280;41086;46.736;15.666;2023-02-18T02:07:58;98969.44;;;3.41;100.00
55217;BME280;41086;46.736;15.666;2023-02-18T02:10:38;98966.84;;;3.41;100.00
55217;BME280;41086;46.736;15.666;2023-02-18T02:13:38;98956.94;;;3.51;100.00
55217;BME280;41086;46.736;15.666;2023-02-18T02:16:25;98945.50;;;3.53;100.00
55217;BME280;41086;46.736;15.666;2023-02-18T02:22:27;98959.69;;;3.73;100.00
55217;BME280;41086;46.736;15.666;2023-02-18T02:36:18;98947.75;;;3.38;100.00
55217;BME280;41086;46.736;15.666;2023-02-18T02:38:50;98939.75;;;3.42;100.00
55217;BME280;41086;46.736;15.666;2023-02-18T02:47:10;98931.88;;;3.14;100.00
55217;BME280;41086;46.736;15.666;2023-02-18T02:50:09;98924.66;;;3.22;100.00
55217;BME280;41086;46.736;15.666;2023-02-18T02:52:50;98928.91;;;3.53;100.00
55217;BME280;41086;46.736;15.666;2023-02-18T02:55:18;98931.53;;;3.53;100.00
55217;BME280;41086;46.736;15.666;2023-02-18T02:57:51;98917.44;;;3.55;100.00
55217;BME280;41086;46.736;15.666;2023-02-18T03:08:42;98930.94;;;3.17;100.00
55217;BME280;41086;46.736;15.666;2023-02-18T03:11:14;98938.78;;;3.17;100.00
55217;BME280;41086;46.736;15.666;2023-02-18T03:16:27;98941.47;;;3.15;100.00
55217;BME280;41086;46.736;15.666;2023-02-18T03:19:07;98960.03;;;3.07;100.00
55217;BME280;41086;46.736;15.666;2023-02-18T03:21:54;98941.09;;;2.99;100.00
55217;BME280;41086;46.736;15.666;2023-02-18T03:27:07;98947.91;;;3.05;100.00
55217;BME280;41086;46.736;15.666;2023-02-18T03:29:36;98942.13;;;2.94;100.00
55217;BME280;41086;46.736;15.666;2023-02-18T03:32:05;98950.94;;;2.91;100.00
55217;BME280;41086;46.736;15.666;2023-02-18T03:34:38;98945.81;;;2.86;100.00
55217;BME280;41086;46.736;15.666;2023-02-18T03:37:09;98945.72;;;2.89;100.00
55217;BME280;41086;46.736;15.666;2023-02-18T03:39:39;98946.44;;;2.95;100.00
55217;BME280;41086;46.736;15.666;2023-02-18T03:42:07;98947.19;;;3.00;100.00
55217;BME280;41086;46.736;15.666;2023-02-18T03:44:34;98955.53;;;3.13;100.00
55217;BME280;41086;46.736;15.666;2023-02-18T03:47:01;98934.69;;;3.08;100.00
55217;BME280;41086;46.736;15.666;2023-02-18T03:49:28;98954.13;;;3.29;100.00
55217;BME280;41086;46.736;15.666;2023-02-18T03:51:55;98951.44;;;3.30;100.00
55217;BME280;41086;46.736;15.666;2023-02-18T03:54:21;98959.41;;;3.27;100.00
55217;BME280;41086;46.736;15.666;2023-02-18T03:56:48;98955.03;;;3.28;100.00
55217;BME280;41086;46.736;15.666;2023-02-18T03:59:15;98942.88;;;3.25;100.00
55217;BME280;41086;46.736;15.666;2023-02-18T04:01:42;98951.97;;;3.14;100.00
55217;BME280;41086;46.736;15.666;2023-02-18T04:04:09;98946.03;;;3.08;100.00
55217;BME280;41086;46.736;15.666;2023-02-18T04:06:36;98956.69;;;3.02;100.00
55217;BME280;41086;46.736;15.666;2023-02-18T04:09:03;98934.00;;;2.73;100.00
55217;BME280;41086;46.736;15.666;2023-02-18T04:11:36;98924.97;;;2.83;100.00
55217;BME280;41086;46.736;15.666;2023-02-18T04:14:04;98923.75;;;2.65;100.00
55217;BME280;41086;46.736;15.666;2023-02-18T04:16:31;98924.69;;;2.63;100.00
55217;BME280;41086;46.736;15.666;2023-02-18T04:18:58;98920.69;;;2.81;100.00
55217;BME280;41086;46.736;15.666;2023-02-18T04:21:25;98917.44;;;2.73;100.00
55217;BME280;41086;46.736;15.666;2023-02-18T04:23:52;98919.84;;;2.80;100.00
55217;BME280;41086;46.736;15.666;2023-02-18T04:26:18;98927.72;;;2.79;100.00
55217;BME280;41086;46.736;15.666;2023-02-18T04:28:45;98919.06;;;2.77;100.00
55217;BME280;41086;46.736;15.666;2023-02-18T04:31:12;98919.22;;;2.72;100.00
55217;BME280;41086;46.736;15.666;2023-02-18T04:33:39;98916.53;;;2.74;100.00
55217;BME280;41086;46.736;15.666;2023-02-18T04:36:06;98919.97;;;2.76;100.00
55217;BME280;41086;46.736;15.666;2023-02-18T04:38:33;98914.84;;;2.73;100.00
55217;BME280;41086;46.736;15.666;2023-02-18T04:41:00;98934.69;;;2.80;100.00
55217;BME280;41086;46.736;15.666;2023-02-18T04:43:27;98919.03;;;2.78;100.00
55217;BME280;41086;46.736;15.666;2023-02-18T04:45:54;98934.50;;;2.86;100.00
55217;BME280;41086;46.736;15.666;2023-02-18T04:48:21;98900.47;;;2.86;100.00
55217;BME280;41086;46.736;15.666;2023-02-18T04:50:48;98923.66;;;2.98;100.00
55217;BME280;41086;46.736;15.666;2023-02-18T04:53:14;98922.03;;;2.94;100.00
55217;BME280;41086;46.736;15.666;2023-02-18T04:55:41;98923.72;;;2.97;100.00
55217;BME280;41086;46.736;15.666;2023-02-18T04:58:08;98916.22;;;2.84;100.00
55217;BME280;41086;46.736;15.666;2023-02-18T05:00:36;98912.00;;;2.80;100.00
55217;BME280;41086;46.736;15.666;2023-02-18T05:03:03;98926.75;;;2.83;100.00
55217;BME280;41086;46.736;15.666;2023-02-18T05:05:30;98913.03;;;2.75;100.00
55217;BME280;41086;46.736;15.666;2023-02-18T05:07:58;98923.03;;;2.90;100.00
55217;BME280;41086;46.736;15.666;2023-02-18T05:10:25;98930.63;;;2.99;100.00
55217;BME280;41086;46.736;15.666;2023-02-18T05:12:52;98906.25;;;2.96;100.00
55217;BME280;41086;46.736;15.666;2023-02-18T05:15:19;98931.97;;;2.83;100.00
55217;BME280;41086;46.736;15.666;2023-02-18T05:17:46;98909.00;;;2.63;100.00
55217;BME280;41086;46.736;15.666;2023-02-18T05:20:13;98920.34;;;2.63;100.00
55217;BME280;41086;46.736;15.666;2023-02-18T05:22:40;98914.31;;;2.60;100.00
55217;BME280;41086;46.736;15.666;2023-02-18T05:25:07;98919.78;;;2.52;100.00
55217;BME280;41086;46.736;15.666;2023-02-18T05:27:34;98913.75;;;2.50;100.00
55217;BME280;41086;46.736;15.666;2023-02-18T05:30:01;98921.72;;;2.46;100.00
55217;BME280;41086;46.736;15.666;2023-02-18T05:32:27;98907.84;;;2.43;100.00
55217;BME280;41086;46.736;15.666;2023-02-18T05:34:54;98909.50;;;2.46;100.00
55217;BME280;41086;46.736;15.666;2023-02-18T05:37:21;98913.75;;;2.50;100.00
55217;BME280;41086;46.736;15.666;2023-02-18T05:39:48;98917.25;;;2.49;100.00
55217;BME280;41086;46.736;15.666;2023-02-18T05:42:14;98911.34;;;2.11;100.00
55217;BME280;41086;46.736;15.666;2023-02-18T05:44:41;98916.13;;;2.28;100.00
55217;BME280;41086;46.736;15.666;2023-02-18T05:47:10;98925.25;;;2.13;100.00
55217;BME280;41086;46.736;15.666;2023-02-18T05:49:38;98927.00;;;2.13;100.00
55217;BME280;41086;46.736;15.666;2023-02-18T05:52:06;98916.66;;;2.08;100.00
55217;BME280;41086;46.736;15.666;2023-02-18T05:54:34;98931.94;;;2.24;100.00
55217;BME280;41086;46.736;15.666;2023-02-18T05:57:02;98940.53;;;2.29;100.00
55217;BME280;41086;46.736;15.666;2023-02-18T05:59:29;98933.63;;;2.26;100.00
55217;BME280;41086;46.736;15.666;2023-02-18T06:01:56;98946.63;;;2.28;100.00
55217;BME280;41086;46.736;15.666;2023-02-18T06:04:23;98940.63;;;2.26;100.00
55217;BME280;41086;46.736;15.666;2023-02-18T06:06:50;98944.91;;;2.28;100.00
55217;BME280;41086;46.736;15.666;2023-02-18T06:09:17;98956.13;;;2.32;100.00
55217;BME280;41086;46.736;15.666;2023-02-18T06:11:44;98954.28;;;2.35;100.00
55217;BME280;41086;46.736;15.666;2023-02-18T06:14:10;98936.34;;;2.21;100.00
55217;BME280;41086;46.736;15.666;2023-02-18T06:16:37;98944.00;;;2.29;100.00
55217;BME280;41086;46.736;15.666;2023-02-18T06:19:04;98942.94;;;2.36;100.00
55217;BME280;41086;46.736;15.666;2023-02-18T06:21:31;98946.41;;;2.37;100.00
55217;BME280;41086;46.736;15.666;2023-02-18T06:23:57;98964.72;;;2.37;100.00
55217;BME280;41086;46.736;15.666;2023-02-18T06:26:24;98964.72;;;2.37;100.00
55217;BME280;41086;46.736;15.666;2023-02-18T06:28:51;98956.97;;;2.32;100.00
55217;BME280;41086;46.736;15.666;2023-02-18T06:31:18;98965.75;;;2.31;100.00
55217;BME280;41086;46.736;15.666;2023-02-18T06:33:45;98969.28;;;2.29;100.00
55217;BME280;41086;46.736;15.666;2023-02-18T06:36:12;98969.38;;;2.26;100.00
55217;BME280;41086;46.736;15.666;2023-02-18T06:38:40;98962.31;;;2.28;100.00
55217;BME280;41086;46.736;15.666;2023-02-18T06:41:07;98972.69;;;2.32;100.00
55217;BME280;41086;46.736;15.666;2023-02-18T06:43:35;98964.81;;;2.34;100.00
55217;BME280;41086;46.736;15.666;2023-02-18T06:46:02;98963.88;;;2.35;100.00
55217;BME280;41086;46.736;15.666;2023-02-18T06:48:30;98980.59;;;2.29;100.00
55217;BME280;41086;46.736;15.666;2023-02-18T06:50:57;98965.81;;;2.28;100.00
55217;BME280;41086;46.736;15.666;2023-02-18T06:53:24;98969.22;;;2.32;100.00
55217;BME280;41086;46.736;15.666;2023-02-18T06:55:50;98973.53;;;2.33;100.00
55217;BME280;41086;46.736;15.666;2023-02-18T06:58:17;98962.97;;;2.36;100.00
55217;BME280;41086;46.736;15.666;2023-02-18T07:00:44;98976.97;;;2.35;100.00
55217;BME280;41086;46.736;15.666;2023-02-18T07:03:12;98975.13;;;2.38;100.00
55217;BME280;41086;46.736;15.666;2023-02-18T07:05:40;98972.72;;;2.31;100.00
55217;BME280;41086;46.736;15.666;2023-02-18T07:08:07;98977.63;;;2.41;100.00
55217;BME280;41086;46.736;15.666;2023-02-18T07:10:34;98982.00;;;2.42;100.00
55217;BME280;41086;46.736;15.666;2023-02-18T07:13:01;98977.44;;;2.49;100.00
55217;BME280;41086;46.736;15.666;2023-02-18T07:15:28;98983.38;;;2.56;100.00
55217;BME280;41086;46.736;15.666;2023-02-18T07:17:54;98984.34;;;2.52;100.00
55217;BME280;41086;46.736;15.666;2023-02-18T07:20:23;98988.31;;;2.65;100.00
55217;BME280;41086;46.736;15.666;2023-02-18T07:22:50;98987.66;;;2.58;100.00
55217;BME280;41086;46.736;15.666;2023-02-18T07:25:17;98985.78;;;2.63;100.00
55217;BME280;41086;46.736;15.666;2023-02-18T07:27:43;98992.09;;;2.55;100.00
55217;BME280;41086;46.736;15.666;2023-02-18T07:30:11;98973.97;;;2.49;100.00
55217;BME280;41086;46.736;15.666;2023-02-18T07:32:37;99001.31;;;2.68;100.00
55217;BME280;41086;46.736;15.666;2023-02-18T07:35:05;98999.34;;;2.76;100.00
55217;BME280;41086;46.736;15.666;2023-02-18T07:37:32;99004.47;;;2.81;100.00
55217;BME280;41086;46.736;15.666;2023-02-18T07:39:59;99009.66;;;2.82;100.00
55217;BME280;41086;46.736;15.666;2023-02-18T07:42:26;98967.19;;;2.73;100.00
55217;BME280;41086;46.736;15.666;2023-02-18T07:44:52;98978.91;;;2.89;100.00
55217;BME280;41086;46.736;15.666;2023-02-18T07:47:19;99005.50;;;3.05;100.00
55217;BME280;41086;46.736;15.666;2023-02-18T07:49:46;98998.53;;;3.04;100.00
55217;BME280;41086;46.736;15.666;2023-02-18T07:52:14;99011.28;;;3.16;100.00
55217;BME280;41086;46.736;15.666;2023-02-18T07:54:41;99024.25;;;3.21;100.00
55217;BME280;41086;46.736;15.666;2023-02-18T07:57:08;99013.56;;;3.27;100.00
55217;BME280;41086;46.736;15.666;2023-02-18T07:59:35;99011.78;;;3.29;100.00
55217;BME280;41086;46.736;15.666;2023-02-18T08:02:02;99021.44;;;3.27;100.00
55217;BME280;41086;46.736;15.666;2023-02-18T08:04:30;99018.94;;;3.22;100.00
55217;BME280;41086;46.736;15.666;2023-02-18T08:06:57;99016.81;;;3.35;100.00
55217;BME280;41086;46.736;15.666;2023-02-18T08:09:24;99024.34;;;3.46;100.00
55217;BME280;41086;46.736;15.666;2023-02-18T08:11:51;99029.72;;;3.41;100.00
55217;BME280;41086;46.736;15.666;2023-02-18T08:14:17;99025.56;;;3.62;100.00
55217;BME280;41086;46.736;15.666;2023-02-18T08:16:44;99017.41;;;3.71;100.00
55217;BME280;41086;46.736;15.666;2023-02-18T08:19:11;99033.50;;;3.87;100.00
55217;BME280;41086;46.736;15.666;2023-02-18T08:21:38;99020.84;;;4.00;100.00
55217;BME280;41086;46.736;15.666;2023-02-18T08:24:05;99033.88;;;4.03;100.00
55217;BME280;41086;46.736;15.666;2023-02-18T08:26:33;99023.94;;;4.13;100.00
55217;BME280;41086;46.736;15.666;2023-02-18T08:29:00;99029.59;;;4.26;100.00
55217;BME280;41086;46.736;15.666;2023-02-18T08:31:29;99035.13;;;4.43;100.00
55217;BME280;41086;46.736;15.666;2023-02-18T08:33:58;99032.63;;;4.40;100.00
55217;BME280;41086;46.736;15.666;2023-02-18T08:36:26;99031.66;;;4.42;100.00
55217;BME280;41086;46.736;15.666;2023-02-18T08:38:53;99030.84;;;4.40;100.00
55217;BME280;41086;46.736;15.666;2023-02-18T08:41:20;99038.50;;;4.47;100.00
55217;BME280;41086;46.736;15.666;2023-02-18T08:43:49;99031.59;;;4.44;100.00
55217;BME280;41086;46.736;15.666;2023-02-18T08:46:16;99026.94;;;4.52;100.00
55217;BME280;41086;46.736;15.666;2023-02-18T08:49:01;99044.78;;;4.68;100.00
55217;BME280;41086;46.736;15.666;2023-02-18T08:51:29;99043.00;;;4.68;100.00
55217;BME280;41086;46.736;15.666;2023-02-18T08:53:57;99037.81;;;4.90;100.00
55217;BME280;41086;46.736;15.666;2023-02-18T08:56:25;99022.06;;;5.14;100.00
55217;BME280;41086;46.736;15.666;2023-02-18T08:58:53;99046.16;;;5.48;100.00
55217;BME280;41086;46.736;15.666;2023-02-18T09:01:19;99036.38;;;5.74;100.00
55217;BME280;41086;46.736;15.666;2023-02-18T09:03:46;99035.34;;;6.00;100.00
55217;BME280;41086;46.736;15.666;2023-02-18T09:06:14;99027.41;;;6.22;100.00
55217;BME280;41086;46.736;15.666;2023-02-18T09:08:41;99045.78;;;6.44;100.00
55217;BME280;41086;46.736;15.666;2023-02-18T09:11:09;99036.34;;;6.79;100.00
55217;BME280;41086;46.736;15.666;2023-02-18T09:13:37;99054.75;;;7.19;100.00
55217;BME280;41086;46.736;15.666;2023-02-18T09:16:12;99058.84;;;7.64;100.00
55217;BME280;41086;46.736;15.666;2023-02-18T09:18:40;99053.72;;;7.97;100.00
55217;BME280;41086;46.736;15.666;2023-02-18T09:21:08;99061.75;;;8.30;100.00
55217;BME280;41086;46.736;15.666;2023-02-18T09:23:36;99053.88;;;8.48;100.00
55217;BME280;41086;46.736;15.666;2023-02-18T09:26:04;99053.72;;;8.51;100.00
55217;BME280;41086;46.736;15.666;2023-02-18T09:28:32;99049.34;;;8.67;100.00
55217;BME280;41086;46.736;15.666;2023-02-18T09:31:07;99037.22;;;8.80;100.00
55217;BME280;41086;46.736;15.666;2023-02-18T09:33:39;99052.63;;;9.05;100.00
55217;BME280;41086;46.736;15.666;2023-02-18T09:36:07;99054.09;;;9.11;100.00
55217;BME280;41086;46.736;15.666;2023-02-18T09:38:34;99058.81;;;9.38;100.00
55217;BME280;41086;46.736;15.666;2023-02-18T09:41:04;99046.22;;;9.74;100.00
55217;BME280;41086;46.736;15.666;2023-02-18T09:43:40;99046.94;;;10.08;100.00
55217;BME280;41086;46.736;15.666;2023-02-18T09:46:21;99039.69;;;10.42;100.00
55217;BME280;41086;46.736;15.666;2023-02-18T09:48:50;99042.88;;;10.63;100.00
55217;BME280;41086;46.736;15.666;2023-02-18T09:51:18;99040.22;;;10.77;99.04
55217;BME280;41086;46.736;15.666;2023-02-18T09:53:45;99041.84;;;10.80;99.65
55217;BME280;41086;46.736;15.666;2023-02-18T09:56:13;99042.63;;;10.96;96.06
55217;BME280;41086;46.736;15.666;2023-02-18T09:58:42;99030.50;;;11.21;93.91
55217;BME280;41086;46.736;15.666;2023-02-18T10:03:41;99040.31;;;12.03;88.67
55217;BME280;41086;46.736;15.666;2023-02-18T10:06:30;99038.53;;;12.44;87.08
55217;BME280;41086;46.736;15.666;2023-02-18T10:09:05;99039.72;;;12.65;86.38
55217;BME280;41086;46.736;15.666;2023-02-18T10:11:41;99014.19;;;12.62;82.13
55217;BME280;41086;46.736;15.666;2023-02-18T10:14:11;99017.38;;;12.80;84.84
55217;BME280;41086;46.736;15.666;2023-02-18T10:16:38;99022.91;;;12.77;82.97
55217;BME280;41086;46.736;15.666;2023-02-18T10:19:24;99022.16;;;12.75;80.68
55217;BME280;41086;46.736;15.666;2023-02-18T10:21:53;98985.69;;;12.52;81.89
55217;BME280;41086;46.736;15.666;2023-02-18T10:24:24;99014.63;;;12.95;85.52
55217;BME280;41086;46.736;15.666;2023-02-18T10:26:53;99007.28;;;12.98;82.93
55217;BME280;41086;46.736;15.666;2023-02-18T10:29:21;98992.25;;;12.59;85.41
55217;BME280;41086;46.736;15.666;2023-02-18T10:31:55;99015.94;;;12.36;84.58
55217;BME280;41086;46.736;15.666;2023-02-18T10:34:41;99009.53;;;12.13;90.30
55217;BME280;41086;46.736;15.666;2023-02-18T10:47:38;98987.00;;;11.38;100.00
55217;BME280;41086;46.736;15.666;2023-02-18T10:52:46;98983.81;;;11.18;100.00
55217;BME280;41086;46.736;15.666;2023-02-18T10:55:16;98975.09;;;11.16;100.00
55217;BME280;41086;46.736;15.666;2023-02-18T10:57:48;98971.09;;;11.09;100.00
55217;BME280;41086;46.736;15.666;2023-02-18T11:00:26;98979.06;;;11.09;100.00
55217;BME280;41086;46.736;15.666;2023-02-18T11:03:37;98970.91;;;11.12;100.00
55217;BME280;41086;46.736;15.666;2023-02-18T11:06:08;98965.72;;;11.11;100.00
55217;BME280;41086;46.736;15.666;2023-02-18T11:08:43;98954.06;;;10.99;100.00
55217;BME280;41086;46.736;15.666;2023-02-18T11:11:23;98953.41;;;10.95;100.00
55217;BME280;41086;46.736;15.666;2023-02-18T11:13:56;98945.38;;;11.38;100.00
55217;BME280;41086;46.736;15.666;2023-02-18T11:16:35;98938.31;;;11.79;99.38
55217;BME280;41086;46.736;15.666;2023-02-18T11:19:02;98935.44;;;12.09;98.91
55217;BME280;41086;46.736;15.666;2023-02-18T11:21:31;98931.53;;;12.40;96.48
55217;BME280;41086;46.736;15.666;2023-02-18T11:24:14;98922.81;;;12.51;96.04
55217;BME280;41086;46.736;15.666;2023-02-18T11:26:41;98907.41;;;12.56;96.44
55217;BME280;41086;46.736;15.666;2023-02-18T11:29:18;98906.13;;;12.36;93.91
55217;BME280;41086;46.736;15.666;2023-02-18T11:31:50;98904.72;;;12.05;94.79
55217;BME280;41086;46.736;15.666;2023-02-18T11:34:20;98879.94;;;11.91;95.75
55217;BME280;41086;46.736;15.666;2023-02-18T11:36:49;98896.03;;;12.03;95.43
55217;BME280;41086;46.736;15.666;2023-02-18T11:39:19;98898.00;;;11.99;97.97
55217;BME280;41086;46.736;15.666;2023-02-18T11:41:53;98883.13;;;11.96;98.44
55217;BME280;41086;46.736;15.666;2023-02-18T11:44:57;98888.13;;;12.01;97.20
55217;BME280;41086;46.736;15.666;2023-02-18T11:47:33;98881.69;;;12.05;97.10
55217;BME280;41086;46.736;15.666;2023-02-18T11:50:15;98876.66;;;12.01;97.08
55217;BME280;41086;46.736;15.666;2023-02-18T11:52:48;98882.81;;;12.01;96.17
55217;BME280;41086;46.736;15.666;2023-02-18T11:55:21;98865.34;;;11.84;96.26
55217;BME280;41086;46.736;15.666;2023-02-18T12:03:07;98855.09;;;11.92;96.98
55217;BME280;41086;46.736;15.666;2023-02-18T12:05:38;98839.22;;;11.78;91.63
55217;BME280;41086;46.736;15.666;2023-02-18T12:08:13;98835.88;;;11.89;89.69
55217;BME280;41086;46.736;15.666;2023-02-18T12:10:51;98828.84;;;11.88;87.29
55217;BME280;41086;46.736;15.666;2023-02-18T12:13:26;98828.59;;;11.78;86.25
55217;BME280;41086;46.736;15.666;2023-02-18T12:18:31;98811.84;;;11.90;85.24
55217;BME280;41086;46.736;15.666;2023-02-18T12:23:53;98806.75;;;11.87;86.80
55217;BME280;41086;46.736;15.666;2023-02-18T12:26:27;98806.41;;;11.79;87.22
55217;BME280;41086;46.736;15.666;2023-02-18T12:28:58;98787.38;;;11.85;86.23
55217;BME280;41086;46.736;15.666;2023-02-18T12:37:16;98781.56;;;11.93;86.44
55217;BME280;41086;46.736;15.666;2023-02-18T12:42:45;98759.78;;;11.88;87.34
55217;BME280;41086;46.736;15.666;2023-02-18T12:53:44;98734.25;;;11.72;87.79
55217;BME280;41086;46.736;15.666;2023-02-18T13:08:10;98710.81;;;11.79;86.85
55217;BME280;41086;46.736;15.666;2023-02-18T13:13:42;98682.03;;;11.86;87.75
55217;BME280;41086;46.736;15.666;2023-02-18T13:16:15;98683.41;;;11.91;87.70
55217;BME280;41086;46.736;15.666;2023-02-18T13:18:47;98691.59;;;11.88;85.76
55217;BME280;41086;46.736;15.666;2023-02-18T13:21:16;98672.69;;;11.67;85.28
55217;BME280;41086;46.736;15.666;2023-02-18T13:24:00;98682.75;;;11.75;88.13
55217;BME280;41086;46.736;15.666;2023-02-18T13:26:32;98674.06;;;11.73;84.92
55217;BME280;41086;46.736;15.666;2023-02-18T13:31:43;98680.75;;;11.79;85.44
55217;BME280;41086;46.736;15.666;2023-02-18T13:34:24;98676.81;;;11.84;85.11
55217;BME280;41086;46.736;15.666;2023-02-18T13:37:25;98687.03;;;11.90;85.22
55217;BME280;41086;46.736;15.666;2023-02-18T13:39:57;98669.63;;;11.86;87.13
55217;BME280;41086;46.736;15.666;2023-02-18T13:45:02;98654.44;;;11.63;84.24
55217;BME280;41086;46.736;15.666;2023-02-18T13:47:39;98651.16;;;11.59;84.47
55217;BME280;41086;46.736;15.666;2023-02-18T13:50:39;98648.50;;;11.59;86.16
55217;BME280;41086;46.736;15.666;2023-02-18T13:58:42;98626.38;;;11.59;87.11
55217;BME280;41086;46.736;15.666;2023-02-18T14:08:47;98601.44;;;11.61;89.31
55217;BME280;41086;46.736;15.666;2023-02-18T14:13:55;98587.22;;;11.49;87.35
55217;BME280;41086;46.736;15.666;2023-02-18T14:17:23;98586.06;;;11.53;87.65
55217;BME280;41086;46.736;15.666;2023-02-18T14:25:20;98585.41;;;11.50;86.14
55217;BME280;41086;46.736;15.666;2023-02-18T14:27:52;98581.59;;;11.54;85.99
55217;BME280;41086;46.736;15.666;2023-02-18T14:30:25;98572.06;;;11.51;85.45
55217;BME280;41086;46.736;15.666;2023-02-18T14:32:59;98573.13;;;11.49;84.46
55217;BME280;41086;46.736;15.666;2023-02-18T14:35:40;98571.53;;;11.46;86.01
55217;BME280;41086;46.736;15.666;2023-02-18T14:52:05;98549.47;;;11.33;87.10
55217;BME280;41086;46.736;15.666;2023-02-18T14:54:36;98548.19;;;11.26;87.77
55217;BME280;41086;46.736;15.666;2023-02-18T14:57:13;98544.16;;;11.20;87.42
55217;BME280;41086;46.736;15.666;2023-02-18T14:59:42;98545.44;;;11.15;86.96
55217;BME280;41086;46.736;15.666;2023-02-18T15:02:23;98545.03;;;11.08;87.10
55217;BME280;41086;46.736;15.666;2023-02-18T15:04:53;98520.03;;;10.99;85.45
55217;BME280;41086;46.736;15.666;2023-02-18T15:07:21;98533.38;;;10.98;86.95
55217;BME280;41086;46.736;15.666;2023-02-18T15:09:51;98536.03;;;10.98;85.37
55217;BME280;41086;46.736;15.666;2023-02-18T15:12:20;98520.22;;;10.96;85.80
55217;BME280;41086;46.736;15.666;2023-02-18T15:14:52;98514.59;;;10.88;85.90
55217;BME280;41086;46.736;15.666;2023-02-18T15:17:25;98514.81;;;10.85;86.52
55217;BME280;41086;46.736;15.666;2023-02-18T15:19:57;98521.16;;;10.82;86.22
55217;BME280;41086;46.736;15.666;2023-02-18T15:22:26;98516.19;;;10.78;85.83